sensor_id;sensor_type;location;lat;lon;timestamp;P1;durP1;ratioP1;P2;durP2;ratioP2
19414;SDS011;9843;48.882;12.592;2022-12-07T00:00:15;9.57;;;8.57;;
19414;SDS011;9843;48.882;12.592;2022-12-07T00:02:43;12.17;;;8.13;;
19414;SDS011;9843;48.882;12.592;2022-12-07T00:05:11;14.03;;;9.70;;
19414;SDS011;9843;48.882;12.592;2022-12-07T00:07:38;10.37;;;8.83;;
19414;SDS011;9843;48.882;12.592;2022-12-07T00:10:06;11.47;;;9.47;;
19414;SDS011;9843;48.882;12.592;2022-12-07T00:12:33;11.03;;;10.03;;
19414;SDS011;9843;48.882;12.592;2022-12-07T00:15:00;9.23;;;8.27;;
19414;SDS011;9843;48.882;12.592;2022-12-07T00:17:27;11.30;;;8.73;;
19414;SDS011;9843;48.882;12.592;2022-12-07T00:19:54;10.47;;;9.00;;
19414;SDS011;9843;48.882;12.592;2022-12-07T00:22:23;9.50;;;8.50;;
19414;SDS011;9843;48.882;12.592;2022-12-07T00:24:50;9.43;;;8.43;;
19414;SDS011;9843;48.882;12.592;2022-12-07T00:27:17;10.10;;;8.57;;
19414;SDS011;9843;48.882;12.592;2022-12-07T00:29:44;12.90;;;9.10;;
19414;SDS011;9843;48.882;12.592;2022-12-07T00:32:11;11.80;;;9.17;;
19414;SDS011;9843;48.882;12.592;2022-12-07T00:34:38;9.80;;;8.80;;
19414;SDS011;9843;48.882;12.592;2022-12-07T00:37:05;13.60;;;10.17;;
19414;SDS011;9843;48.882;12.592;2022-12-07T00:39:33;10.80;;;9.67;;
19414;SDS011;9843;48.882;12.592;2022-12-07T00:42:00;10.57;;;9.17;;
19414;SDS011;9843;48.882;12.592;2022-12-07T00:44:27;10.93;;;9.63;;
19414;SDS011;9843;48.882;12.592;2022-12-07T00:46:54;11.23;;;8.93;;
19414;SDS011;9843;48.882;12.592;2022-12-07T00:49:22;10.53;;;9.57;;
19414;SDS011;9843;48.882;12.592;2022-12-07T00:51:49;10.23;;;8.83;;
19414;SDS011;9843;48.882;12.592;2022-12-07T00:54:16;12.40;;;11.10;;
19414;SDS011;9843;48.882;12.592;2022-12-07T00:56:44;9.70;;;8.70;;
19414;SDS011;9843;48.882;12.592;2022-12-07T00:59:12;13.07;;;11.73;;
19414;SDS011;9843;48.882;12.592;2022-12-07T01:01:40;13.57;;;9.43;;
19414;SDS011;9843;48.882;12.592;2022-12-07T01:04:07;10.20;;;9.20;;
19414;SDS011;9843;48.882;12.592;2022-12-07T01:06:34;10.27;;;8.60;;
19414;SDS011;9843;48.882;12.592;2022-12-07T01:09:02;13.30;;;11.07;;
19414;SDS011;9843;48.882;12.592;2022-12-07T01:11:31;11.47;;;10.27;;
19414;SDS011;9843;48.882;12.592;2022-12-07T01:14:00;15.40;;;10.97;;
19414;SDS011;9843;48.882;12.592;2022-12-07T01:16:28;12.13;;;10.13;;
19414;SDS011;9843;48.882;12.592;2022-12-07T01:18:56;12.30;;;10.63;;
19414;SDS011;9843;48.882;12.592;2022-12-07T01:21:24;12.93;;;11.57;;
19414;SDS011;9843;48.882;12.592;2022-12-07T01:23:51;13.40;;;10.90;;
19414;SDS011;9843;48.882;12.592;2022-12-07T01:26:19;12.87;;;10.13;;
19414;SDS011;9843;48.882;12.592;2022-12-07T01:28:46;12.43;;;9.30;;
19414;SDS011;9843;48.882;12.592;2022-12-07T01:31:15;10.90;;;9.70;;
19414;SDS011;9843;48.882;12.592;2022-12-07T01:33:43;10.23;;;9.13;;
19414;SDS011;9843;48.882;12.592;2022-12-07T01:36:12;10.77;;;9.67;;
19414;SDS011;9843;48.882;12.592;2022-12-07T01:38:40;10.13;;;9.13;;
19414;SDS011;9843;48.882;12.592;2022-12-07T01:41:07;14.67;;;10.67;;
19414;SDS011;9843;48.882;12.592;2022-12-07T01:43:35;10.70;;;8.40;;
19414;SDS011;9843;48.882;12.592;2022-12-07T01:46:03;10.03;;;9.03;;
19414;SDS011;9843;48.882;12.592;2022-12-07T01:48:32;10.20;;;9.17;;
19414;SDS011;9843;48.882;12.592;2022-12-07T01:51:01;10.97;;;8.70;;
19414;SDS011;9843;48.882;12.592;2022-12-07T01:53:28;9.40;;;8.13;;
19414;SDS011;9843;48.882;12.592;2022-12-07T01:55:56;11.27;;;8.57;;
19414;SDS011;9843;48.882;12.592;2022-12-07T01:58:24;11.57;;;10.40;;
19414;SDS011;9843;48.882;12.592;2022-12-07T02:00:52;11.07;;;9.33;;
19414;SDS011;9843;48.882;12.592;2022-12-07T02:03:20;8.90;;;7.70;;
19414;SDS011;9843;48.882;12.592;2022-12-07T02:05:50;8.10;;;7.37;;
19414;SDS011;9843;48.882;12.592;2022-12-07T02:08:17;8.83;;;7.93;;
19414;SDS011;9843;48.882;12.592;2022-12-07T02:10:45;11.97;;;9.47;;
19414;SDS011;9843;48.882;12.592;2022-12-07T02:13:12;9.83;;;8.43;;
19414;SDS011;9843;48.882;12.592;2022-12-07T02:15:53;15.63;;;9.70;;
19414;SDS011;9843;48.882;12.592;2022-12-07T02:18:23;9.73;;;8.73;;
19414;SDS011;9843;48.882;12.592;2022-12-07T02:20:55;9.90;;;8.80;;
19414;SDS011;9843;48.882;12.592;2022-12-07T02:23:43;11.37;;;9.07;;
19414;SDS011;9843;48.882;12.592;2022-12-07T02:29:05;10.33;;;9.33;;
19414;SDS011;9843;48.882;12.592;2022-12-07T02:31:34;9.67;;;8.30;;
19414;SDS011;9843;48.882;12.592;2022-12-07T02:34:04;11.50;;;8.90;;
19414;SDS011;9843;48.882;12.592;2022-12-07T02:36:35;14.40;;;9.07;;
19414;SDS011;9843;48.882;12.592;2022-12-07T02:39:06;9.60;;;8.67;;
19414;SDS011;9843;48.882;12.592;2022-12-07T02:41:36;10.80;;;9.20;;
19414;SDS011;9843;48.882;12.592;2022-12-07T02:44:06;13.03;;;9.33;;
19414;SDS011;9843;48.882;12.592;2022-12-07T02:46:36;10.80;;;9.70;;
19414;SDS011;9843;48.882;12.592;2022-12-07T02:49:04;10.63;;;9.60;;
19414;SDS011;9843;48.882;12.592;2022-12-07T02:51:32;10.63;;;8.87;;
19414;SDS011;9843;48.882;12.592;2022-12-07T02:53:59;8.70;;;7.90;;
19414;SDS011;9843;48.882;12.592;2022-12-07T02:56:27;13.83;;;11.10;;
19414;SDS011;9843;48.882;12.592;2022-12-07T02:58:59;10.77;;;9.73;;
19414;SDS011;9843;48.882;12.592;2022-12-07T03:01:32;12.67;;;10.83;;
19414;SDS011;9843;48.882;12.592;2022-12-07T03:04:07;10.17;;;9.17;;
19414;SDS011;9843;48.882;12.592;2022-12-07T03:06:40;13.07;;;10.90;;
19414;SDS011;9843;48.882;12.592;2022-12-07T03:09:11;12.73;;;10.47;;
19414;SDS011;9843;48.882;12.592;2022-12-07T03:11:41;10.83;;;9.77;;
19414;SDS011;9843;48.882;12.592;2022-12-07T03:14:13;9.47;;;8.57;;
19414;SDS011;9843;48.882;12.592;2022-12-07T03:16:45;9.90;;;9.00;;
19414;SDS011;9843;48.882;12.592;2022-12-07T03:19:14;9.37;;;8.37;;
19414;SDS011;9843;48.882;12.592;2022-12-07T03:21:44;10.47;;;9.47;;
19414;SDS011;9843;48.882;12.592;2022-12-07T03:24:11;8.73;;;7.83;;
19414;SDS011;9843;48.882;12.592;2022-12-07T03:26:41;9.17;;;8.07;;
19414;SDS011;9843;48.882;12.592;2022-12-07T03:29:10;11.73;;;10.17;;
19414;SDS011;9843;48.882;12.592;2022-12-07T03:31:39;11.50;;;8.80;;
19414;SDS011;9843;48.882;12.592;2022-12-07T03:34:11;13.47;;;9.33;;
19414;SDS011;9843;48.882;12.592;2022-12-07T03:36:40;12.63;;;9.67;;
19414;SDS011;9843;48.882;12.592;2022-12-07T03:39:12;15.17;;;10.50;;
19414;SDS011;9843;48.882;12.592;2022-12-07T03:41:42;8.77;;;7.97;;
19414;SDS011;9843;48.882;12.592;2022-12-07T03:44:10;11.27;;;10.03;;
19414;SDS011;9843;48.882;12.592;2022-12-07T03:46:40;10.43;;;9.23;;
19414;SDS011;9843;48.882;12.592;2022-12-07T03:49:12;10.97;;;9.97;;
19414;SDS011;9843;48.882;12.592;2022-12-07T03:51:43;10.03;;;9.07;;
19414;SDS011;9843;48.882;12.592;2022-12-07T03:54:13;9.73;;;8.73;;
19414;SDS011;9843;48.882;12.592;2022-12-07T03:56:42;9.93;;;8.87;;
19414;SDS011;9843;48.882;12.592;2022-12-07T03:59:10;9.73;;;8.87;;
19414;SDS011;9843;48.882;12.592;2022-12-07T04:01:38;13.90;;;10.30;;
19414;SDS011;9843;48.882;12.592;2022-12-07T04:04:05;10.30;;;9.23;;
19414;SDS011;9843;48.882;12.592;2022-12-07T04:06:33;10.67;;;8.97;;
19414;SDS011;9843;48.882;12.592;2022-12-07T04:09:00;10.10;;;9.10;;
19414;SDS011;9843;48.882;12.592;2022-12-07T04:11:27;10.43;;;9.33;;
19414;SDS011;9843;48.882;12.592;2022-12-07T04:13:54;11.80;;;9.97;;
19414;SDS011;9843;48.882;12.592;2022-12-07T04:16:39;9.50;;;8.50;;
19414;SDS011;9843;48.882;12.592;2022-12-07T04:19:06;12.27;;;10.97;;
19414;SDS011;9843;48.882;12.592;2022-12-07T04:21:35;10.03;;;9.03;;
19414;SDS011;9843;48.882;12.592;2022-12-07T04:24:02;10.70;;;9.67;;
19414;SDS011;9843;48.882;12.592;2022-12-07T04:26:29;9.77;;;8.80;;
19414;SDS011;9843;48.882;12.592;2022-12-07T04:28:56;11.20;;;8.97;;
19414;SDS011;9843;48.882;12.592;2022-12-07T04:31:23;10.97;;;9.80;;
19414;SDS011;9843;48.882;12.592;2022-12-07T04:33:50;10.23;;;9.17;;
19414;SDS011;9843;48.882;12.592;2022-12-07T04:36:17;8.50;;;7.63;;
19414;SDS011;9843;48.882;12.592;2022-12-07T04:38:46;10.40;;;8.67;;
19414;SDS011;9843;48.882;12.592;2022-12-07T04:41:13;11.40;;;10.07;;
19414;SDS011;9843;48.882;12.592;2022-12-07T04:43:41;11.40;;;9.73;;
19414;SDS011;9843;48.882;12.592;2022-12-07T04:46:08;10.40;;;9.23;;
19414;SDS011;9843;48.882;12.592;2022-12-07T04:48:35;11.70;;;10.53;;
19414;SDS011;9843;48.882;12.592;2022-12-07T04:51:02;13.13;;;10.90;;
19414;SDS011;9843;48.882;12.592;2022-12-07T04:53:29;11.27;;;10.17;;
19414;SDS011;9843;48.882;12.592;2022-12-07T04:55:58;10.70;;;9.40;;
19414;SDS011;9843;48.882;12.592;2022-12-07T04:58:26;12.70;;;10.67;;
19414;SDS011;9843;48.882;12.592;2022-12-07T05:00:53;14.07;;;10.57;;
19414;SDS011;9843;48.882;12.592;2022-12-07T05:03:20;13.67;;;12.23;;
19414;SDS011;9843;48.882;12.592;2022-12-07T05:05:47;11.63;;;10.53;;
19414;SDS011;9843;48.882;12.592;2022-12-07T05:08:14;12.23;;;10.30;;
19414;SDS011;9843;48.882;12.592;2022-12-07T05:10:42;11.43;;;10.23;;
19414;SDS011;9843;48.882;12.592;2022-12-07T05:13:10;14.50;;;11.73;;
19414;SDS011;9843;48.882;12.592;2022-12-07T05:15:37;12.07;;;10.80;;
19414;SDS011;9843;48.882;12.592;2022-12-07T05:18:04;13.93;;;11.40;;
19414;SDS011;9843;48.882;12.592;2022-12-07T05:20:31;13.67;;;12.30;;
19414;SDS011;9843;48.882;12.592;2022-12-07T05:22:58;16.50;;;14.47;;
19414;SDS011;9843;48.882;12.592;2022-12-07T05:25:25;16.47;;;13.23;;
19414;SDS011;9843;48.882;12.592;2022-12-07T05:27:54;21.63;;;11.40;;
19414;SDS011;9843;48.882;12.592;2022-12-07T05:30:23;14.37;;;11.47;;
19414;SDS011;9843;48.882;12.592;2022-12-07T05:32:50;16.10;;;12.27;;
19414;SDS011;9843;48.882;12.592;2022-12-07T05:35:17;14.60;;;12.53;;
19414;SDS011;9843;48.882;12.592;2022-12-07T05:37:45;20.80;;;14.73;;
19414;SDS011;9843;48.882;12.592;2022-12-07T05:40:12;15.87;;;14.17;;
19414;SDS011;9843;48.882;12.592;2022-12-07T05:42:39;28.30;;;12.50;;
19414;SDS011;9843;48.882;12.592;2022-12-07T05:45:06;16.30;;;12.87;;
19414;SDS011;9843;48.882;12.592;2022-12-07T05:47:35;16.03;;;13.23;;
19414;SDS011;9843;48.882;12.592;2022-12-07T05:50:02;13.60;;;12.03;;
19414;SDS011;9843;48.882;12.592;2022-12-07T05:52:29;17.40;;;13.60;;
19414;SDS011;9843;48.882;12.592;2022-12-07T05:54:57;18.13;;;14.40;;
19414;SDS011;9843;48.882;12.592;2022-12-07T05:57:24;18.83;;;14.53;;
19414;SDS011;9843;48.882;12.592;2022-12-07T05:59:51;18.13;;;13.93;;
19414;SDS011;9843;48.882;12.592;2022-12-07T06:02:17;20.60;;;14.03;;
19414;SDS011;9843;48.882;12.592;2022-12-07T06:04:46;17.23;;;15.47;;
19414;SDS011;9843;48.882;12.592;2022-12-07T06:07:13;16.70;;;14.20;;
19414;SDS011;9843;48.882;12.592;2022-12-07T06:09:41;17.87;;;13.97;;
19414;SDS011;9843;48.882;12.592;2022-12-07T06:12:09;16.23;;;13.60;;
19414;SDS011;9843;48.882;12.592;2022-12-07T06:14:54;20.53;;;17.10;;
19414;SDS011;9843;48.882;12.592;2022-12-07T06:17:21;21.67;;;15.30;;
19414;SDS011;9843;48.882;12.592;2022-12-07T06:19:50;19.87;;;15.00;;
19414;SDS011;9843;48.882;12.592;2022-12-07T06:22:17;20.40;;;17.07;;
19414;SDS011;9843;48.882;12.592;2022-12-07T06:24:44;19.07;;;14.97;;
19414;SDS011;9843;48.882;12.592;2022-12-07T06:27:11;18.97;;;15.93;;
19414;SDS011;9843;48.882;12.592;2022-12-07T06:29:39;20.83;;;16.53;;
19414;SDS011;9843;48.882;12.592;2022-12-07T06:32:06;19.23;;;16.57;;
19414;SDS011;9843;48.882;12.592;2022-12-07T06:34:33;22.83;;;18.07;;
19414;SDS011;9843;48.882;12.592;2022-12-07T06:37:01;23.53;;;17.20;;
19414;SDS011;9843;48.882;12.592;2022-12-07T06:39:28;19.57;;;14.97;;
19414;SDS011;9843;48.882;12.592;2022-12-07T06:41:55;25.03;;;17.23;;
19414;SDS011;9843;48.882;12.592;2022-12-07T06:44:23;24.37;;;17.53;;
19414;SDS011;9843;48.882;12.592;2022-12-07T06:46:50;23.87;;;17.87;;
19414;SDS011;9843;48.882;12.592;2022-12-07T06:49:18;22.80;;;15.93;;
19414;SDS011;9843;48.882;12.592;2022-12-07T06:51:45;23.47;;;17.73;;
19414;SDS011;9843;48.882;12.592;2022-12-07T06:54:13;20.83;;;16.23;;
19414;SDS011;9843;48.882;12.592;2022-12-07T06:56:41;24.97;;;18.37;;
19414;SDS011;9843;48.882;12.592;2022-12-07T06:59:08;22.47;;;17.07;;
19414;SDS011;9843;48.882;12.592;2022-12-07T07:01:35;21.67;;;18.73;;
19414;SDS011;9843;48.882;12.592;2022-12-07T07:04:03;20.40;;;15.80;;
19414;SDS011;9843;48.882;12.592;2022-12-07T07:06:30;23.40;;;18.50;;
19414;SDS011;9843;48.882;12.592;2022-12-07T07:08:57;22.33;;;17.23;;
19414;SDS011;9843;48.882;12.592;2022-12-07T07:11:26;20.03;;;16.37;;
19414;SDS011;9843;48.882;12.592;2022-12-07T07:13:53;24.80;;;19.13;;
19414;SDS011;9843;48.882;12.592;2022-12-07T07:16:22;22.67;;;18.23;;
19414;SDS011;9843;48.882;12.592;2022-12-07T07:18:49;23.03;;;16.47;;
19414;SDS011;9843;48.882;12.592;2022-12-07T07:21:16;20.93;;;17.03;;
19414;SDS011;9843;48.882;12.592;2022-12-07T07:23:43;28.63;;;18.20;;
19414;SDS011;9843;48.882;12.592;2022-12-07T07:26:10;22.53;;;19.40;;
19414;SDS011;9843;48.882;12.592;2022-12-07T07:28:39;20.97;;;16.30;;
19414;SDS011;9843;48.882;12.592;2022-12-07T07:31:06;26.20;;;18.53;;
19414;SDS011;9843;48.882;12.592;2022-12-07T07:33:33;18.83;;;16.10;;
19414;SDS011;9843;48.882;12.592;2022-12-07T07:36:00;21.97;;;15.53;;
19414;SDS011;9843;48.882;12.592;2022-12-07T07:38:27;26.27;;;16.60;;
19414;SDS011;9843;48.882;12.592;2022-12-07T07:40:54;18.93;;;16.87;;
19414;SDS011;9843;48.882;12.592;2022-12-07T07:43:21;19.03;;;15.30;;
19414;SDS011;9843;48.882;12.592;2022-12-07T07:45:50;18.37;;;15.50;;
19414;SDS011;9843;48.882;12.592;2022-12-07T07:48:17;20.50;;;15.80;;
19414;SDS011;9843;48.882;12.592;2022-12-07T07:50:44;20.17;;;15.97;;
19414;SDS011;9843;48.882;12.592;2022-12-07T07:53:11;21.83;;;16.63;;
19414;SDS011;9843;48.882;12.592;2022-12-07T07:55:38;16.87;;;15.10;;
19414;SDS011;9843;48.882;12.592;2022-12-07T07:58:05;19.33;;;15.97;;
19414;SDS011;9843;48.882;12.592;2022-12-07T08:00:32;21.40;;;15.47;;
19414;SDS011;9843;48.882;12.592;2022-12-07T08:03:00;17.57;;;14.17;;
19414;SDS011;9843;48.882;12.592;2022-12-07T08:05:28;20.17;;;15.40;;
19414;SDS011;9843;48.882;12.592;2022-12-07T08:07:55;18.83;;;15.50;;
19414;SDS011;9843;48.882;12.592;2022-12-07T08:10:22;15.93;;;14.17;;
19414;SDS011;9843;48.882;12.592;2022-12-07T08:12:49;16.53;;;14.53;;
19414;SDS011;9843;48.882;12.592;2022-12-07T08:15:33;16.17;;;14.13;;
19414;SDS011;9843;48.882;12.592;2022-12-07T08:18:04;18.43;;;15.07;;
19414;SDS011;9843;48.882;12.592;2022-12-07T08:20:31;21.50;;;16.17;;
19414;SDS011;9843;48.882;12.592;2022-12-07T08:22:59;21.53;;;16.77;;
19414;SDS011;9843;48.882;12.592;2022-12-07T08:25:26;19.33;;;16.67;;
19414;SDS011;9843;48.882;12.592;2022-12-07T08:27:53;16.63;;;14.60;;
19414;SDS011;9843;48.882;12.592;2022-12-07T08:30:20;18.73;;;15.77;;
19414;SDS011;9843;48.882;12.592;2022-12-07T08:32:48;22.23;;;18.00;;
19414;SDS011;9843;48.882;12.592;2022-12-07T08:35:17;15.70;;;13.87;;
19414;SDS011;9843;48.882;12.592;2022-12-07T08:37:44;16.90;;;12.50;;
19414;SDS011;9843;48.882;12.592;2022-12-07T08:40:12;16.77;;;15.00;;
19414;SDS011;9843;48.882;12.592;2022-12-07T08:42:40;16.27;;;13.03;;
19414;SDS011;9843;48.882;12.592;2022-12-07T08:45:10;16.07;;;12.17;;
19414;SDS011;9843;48.882;12.592;2022-12-07T08:47:38;17.23;;;12.93;;
19414;SDS011;9843;48.882;12.592;2022-12-07T08:50:06;15.17;;;11.77;;
19414;SDS011;9843;48.882;12.592;2022-12-07T08:52:35;15.27;;;13.47;;
19414;SDS011;9843;48.882;12.592;2022-12-07T08:55:03;15.90;;;14.23;;
19414;SDS011;9843;48.882;12.592;2022-12-07T08:57:31;17.40;;;13.17;;
19414;SDS011;9843;48.882;12.592;2022-12-07T09:00:00;15.93;;;14.27;;
19414;SDS011;9843;48.882;12.592;2022-12-07T09:02:27;13.13;;;11.47;;
19414;SDS011;9843;48.882;12.592;2022-12-07T09:04:54;16.43;;;13.83;;
19414;SDS011;9843;48.882;12.592;2022-12-07T09:07:21;15.07;;;12.27;;
19414;SDS011;9843;48.882;12.592;2022-12-07T09:09:49;14.80;;;13.15;;
19414;SDS011;9843;48.882;12.592;2022-12-07T09:12:17;13.30;;;11.20;;
19414;SDS011;9843;48.882;12.592;2022-12-07T09:14:44;13.90;;;11.67;;
19414;SDS011;9843;48.882;12.592;2022-12-07T09:17:11;14.80;;;13.20;;
19414;SDS011;9843;48.882;12.592;2022-12-07T09:19:38;15.50;;;12.73;;
19414;SDS011;9843;48.882;12.592;2022-12-07T09:22:07;16.33;;;12.03;;
19414;SDS011;9843;48.882;12.592;2022-12-07T09:24:34;13.63;;;12.07;;
19414;SDS011;9843;48.882;12.592;2022-12-07T09:27:02;13.90;;;12.40;;
19414;SDS011;9843;48.882;12.592;2022-12-07T09:29:30;14.47;;;11.70;;
19414;SDS011;9843;48.882;12.592;2022-12-07T09:31:57;17.50;;;13.33;;
19414;SDS011;9843;48.882;12.592;2022-12-07T09:34:24;16.40;;;13.00;;
19414;SDS011;9843;48.882;12.592;2022-12-07T09:36:51;11.97;;;10.47;;
19414;SDS011;9843;48.882;12.592;2022-12-07T09:39:18;14.90;;;12.73;;
19414;SDS011;9843;48.882;12.592;2022-12-07T09:41:46;15.37;;;12.30;;
19414;SDS011;9843;48.882;12.592;2022-12-07T09:44:20;12.23;;;10.53;;
19414;SDS011;9843;48.882;12.592;2022-12-07T09:46:47;13.17;;;10.70;;
19414;SDS011;9843;48.882;12.592;2022-12-07T09:49:16;16.67;;;11.77;;
19414;SDS011;9843;48.882;12.592;2022-12-07T09:51:45;14.47;;;11.97;;
19414;SDS011;9843;48.882;12.592;2022-12-07T09:54:12;14.47;;;10.83;;
19414;SDS011;9843;48.882;12.592;2022-12-07T09:56:40;14.77;;;12.40;;
19414;SDS011;9843;48.882;12.592;2022-12-07T09:59:09;15.93;;;12.27;;
19414;SDS011;9843;48.882;12.592;2022-12-07T10:01:41;14.03;;;10.50;;
19414;SDS011;9843;48.882;12.592;2022-12-07T10:04:09;15.37;;;12.13;;
19414;SDS011;9843;48.882;12.592;2022-12-07T10:06:38;15.30;;;12.40;;
19414;SDS011;9843;48.882;12.592;2022-12-07T10:09:08;17.90;;;13.17;;
19414;SDS011;9843;48.882;12.592;2022-12-07T10:14:18;15.23;;;11.87;;
19414;SDS011;9843;48.882;12.592;2022-12-07T10:16:47;15.70;;;13.10;;
19414;SDS011;9843;48.882;12.592;2022-12-07T10:19:19;17.13;;;11.57;;
19414;SDS011;9843;48.882;12.592;2022-12-07T10:21:59;11.47;;;9.40;;
19414;SDS011;9843;48.882;12.592;2022-12-07T10:24:26;13.50;;;9.90;;
19414;SDS011;9843;48.882;12.592;2022-12-07T10:26:53;19.23;;;11.93;;
19414;SDS011;9843;48.882;12.592;2022-12-07T10:29:21;15.40;;;11.07;;
19414;SDS011;9843;48.882;12.592;2022-12-07T10:31:52;11.80;;;10.13;;
19414;SDS011;9843;48.882;12.592;2022-12-07T10:34:21;12.30;;;10.83;;
19414;SDS011;9843;48.882;12.592;2022-12-07T10:36:50;13.35;;;10.90;;
19414;SDS011;9843;48.882;12.592;2022-12-07T10:39:17;13.30;;;10.93;;
19414;SDS011;9843;48.882;12.592;2022-12-07T10:41:52;18.33;;;12.87;;
19414;SDS011;9843;48.882;12.592;2022-12-07T10:44:21;15.23;;;12.23;;
19414;SDS011;9843;48.882;12.592;2022-12-07T10:47:05;11.73;;;9.90;;
19414;SDS011;9843;48.882;12.592;2022-12-07T10:52:25;18.13;;;12.00;;
19414;SDS011;9843;48.882;12.592;2022-12-07T10:55:00;14.00;;;11.83;;
19414;SDS011;9843;48.882;12.592;2022-12-07T10:57:32;14.17;;;12.17;;
19414;SDS011;9843;48.882;12.592;2022-12-07T11:00:11;17.27;;;13.03;;
19414;SDS011;9843;48.882;12.592;2022-12-07T11:05:29;15.07;;;10.07;;
19414;SDS011;9843;48.882;12.592;2022-12-07T11:08:03;12.63;;;11.07;;
19414;SDS011;9843;48.882;12.592;2022-12-07T11:10:35;9.27;;;8.37;;
19414;SDS011;9843;48.882;12.592;2022-12-07T11:13:22;12.83;;;8.97;;
19414;SDS011;9843;48.882;12.592;2022-12-07T11:16:02;16.07;;;10.93;;
19414;SDS011;9843;48.882;12.592;2022-12-07T11:18:34;13.83;;;9.33;;
19414;SDS011;9843;48.882;12.592;2022-12-07T11:21:06;13.97;;;8.83;;
19414;SDS011;9843;48.882;12.592;2022-12-07T11:23:38;12.50;;;10.60;;
19414;SDS011;9843;48.882;12.592;2022-12-07T11:26:09;13.13;;;10.77;;
19414;SDS011;9843;48.882;12.592;2022-12-07T11:28:44;12.40;;;9.73;;
19414;SDS011;9843;48.882;12.592;2022-12-07T11:31:16;13.33;;;10.33;;
19414;SDS011;9843;48.882;12.592;2022-12-07T11:33:47;11.50;;;8.90;;
19414;SDS011;9843;48.882;12.592;2022-12-07T11:36:23;13.33;;;10.47;;
19414;SDS011;9843;48.882;12.592;2022-12-07T11:38:54;11.47;;;9.33;;
19414;SDS011;9843;48.882;12.592;2022-12-07T11:41:23;11.10;;;9.40;;
19414;SDS011;9843;48.882;12.592;2022-12-07T11:43:54;13.43;;;9.93;;
19414;SDS011;9843;48.882;12.592;2022-12-07T11:46:24;11.93;;;9.40;;
19414;SDS011;9843;48.882;12.592;2022-12-07T11:48:52;10.73;;;9.23;;
19414;SDS011;9843;48.882;12.592;2022-12-07T11:51:23;11.80;;;10.60;;
19414;SDS011;9843;48.882;12.592;2022-12-07T11:53:52;19.40;;;11.07;;
19414;SDS011;9843;48.882;12.592;2022-12-07T11:56:21;13.87;;;9.23;;
19414;SDS011;9843;48.882;12.592;2022-12-07T11:58:49;15.73;;;11.90;;
19414;SDS011;9843;48.882;12.592;2022-12-07T12:01:26;17.47;;;13.10;;
19414;SDS011;9843;48.882;12.592;2022-12-07T12:03:56;16.87;;;12.97;;
19414;SDS011;9843;48.882;12.592;2022-12-07T12:06:26;16.40;;;10.67;;
19414;SDS011;9843;48.882;12.592;2022-12-07T12:08:54;30.40;;;22.13;;
19414;SDS011;9843;48.882;12.592;2022-12-07T12:11:27;16.60;;;12.77;;
19414;SDS011;9843;48.882;12.592;2022-12-07T12:16:48;15.93;;;12.13;;
19414;SDS011;9843;48.882;12.592;2022-12-07T12:19:22;16.07;;;13.67;;
19414;SDS011;9843;48.882;12.592;2022-12-07T12:21:55;15.60;;;12.03;;
19414;SDS011;9843;48.882;12.592;2022-12-07T12:24:23;14.60;;;9.50;;
19414;SDS011;9843;48.882;12.592;2022-12-07T12:26:53;10.83;;;9.83;;
19414;SDS011;9843;48.882;12.592;2022-12-07T12:29:23;10.93;;;9.20;;
19414;SDS011;9843;48.882;12.592;2022-12-07T12:34:39;11.30;;;9.67;;
19414;SDS011;9843;48.882;12.592;2022-12-07T12:42:45;14.10;;;11.03;;
19414;SDS011;9843;48.882;12.592;2022-12-07T12:45:19;12.50;;;10.97;;
19414;SDS011;9843;48.882;12.592;2022-12-07T12:50:24;14.00;;;9.97;;
19414;SDS011;9843;48.882;12.592;2022-12-07T12:52:52;15.30;;;10.17;;
19414;SDS011;9843;48.882;12.592;2022-12-07T12:55:22;13.33;;;11.67;;
19414;SDS011;9843;48.882;12.592;2022-12-07T13:00:36;18.20;;;12.17;;
19414;SDS011;9843;48.882;12.592;2022-12-07T13:03:04;17.50;;;13.73;;
19414;SDS011;9843;48.882;12.592;2022-12-07T13:05:31;16.20;;;11.83;;
19414;SDS011;9843;48.882;12.592;2022-12-07T13:07:59;13.17;;;11.43;;
19414;SDS011;9843;48.882;12.592;2022-12-07T13:10:34;14.57;;;11.93;;
19414;SDS011;9843;48.882;12.592;2022-12-07T13:13:03;14.27;;;10.70;;
19414;SDS011;9843;48.882;12.592;2022-12-07T13:15:32;14.13;;;10.20;;
19414;SDS011;9843;48.882;12.592;2022-12-07T13:18:02;11.43;;;10.00;;
19414;SDS011;9843;48.882;12.592;2022-12-07T13:20:44;14.33;;;11.90;;
19414;SDS011;9843;48.882;12.592;2022-12-07T13:23:12;11.33;;;10.17;;
19414;SDS011;9843;48.882;12.592;2022-12-07T13:25:43;12.77;;;10.53;;
19414;SDS011;9843;48.882;12.592;2022-12-07T13:28:14;14.13;;;11.47;;
19414;SDS011;9843;48.882;12.592;2022-12-07T13:30:44;13.73;;;11.10;;
19414;SDS011;9843;48.882;12.592;2022-12-07T13:33:13;13.93;;;10.27;;
19414;SDS011;9843;48.882;12.592;2022-12-07T13:35:41;15.23;;;11.10;;
19414;SDS011;9843;48.882;12.592;2022-12-07T13:38:16;14.30;;;10.67;;
19414;SDS011;9843;48.882;12.592;2022-12-07T13:40:59;12.90;;;11.60;;
19414;SDS011;9843;48.882;12.592;2022-12-07T13:43:26;13.53;;;9.43;;
19414;SDS011;9843;48.882;12.592;2022-12-07T13:45:55;9.73;;;8.73;;
19414;SDS011;9843;48.882;12.592;2022-12-07T13:48:30;12.70;;;10.00;;
19414;SDS011;9843;48.882;12.592;2022-12-07T13:50:59;20.23;;;10.10;;
19414;SDS011;9843;48.882;12.592;2022-12-07T13:53:27;11.53;;;10.20;;
19414;SDS011;9843;48.882;12.592;2022-12-07T13:55:55;36.50;;;13.10;;
19414;SDS011;9843;48.882;12.592;2022-12-07T13:58:23;15.43;;;10.53;;
19414;SDS011;9843;48.882;12.592;2022-12-07T14:00:50;10.77;;;9.67;;
19414;SDS011;9843;48.882;12.592;2022-12-07T14:03:25;13.13;;;10.07;;
19414;SDS011;9843;48.882;12.592;2022-12-07T14:06:03;12.20;;;10.23;;
19414;SDS011;9843;48.882;12.592;2022-12-07T14:08:30;12.73;;;9.83;;
19414;SDS011;9843;48.882;12.592;2022-12-07T14:10:57;16.87;;;11.37;;
19414;SDS011;9843;48.882;12.592;2022-12-07T14:13:27;13.87;;;9.93;;
19414;SDS011;9843;48.882;12.592;2022-12-07T14:15:55;10.93;;;9.80;;
19414;SDS011;9843;48.882;12.592;2022-12-07T14:18:27;13.50;;;10.93;;
19414;SDS011;9843;48.882;12.592;2022-12-07T14:21:04;10.40;;;8.60;;
19414;SDS011;9843;48.882;12.592;2022-12-07T14:23:31;12.47;;;11.23;;
19414;SDS011;9843;48.882;12.592;2022-12-07T14:26:06;12.27;;;9.23;;
19414;SDS011;9843;48.882;12.592;2022-12-07T14:28:35;15.60;;;11.40;;
19414;SDS011;9843;48.882;12.592;2022-12-07T14:31:03;13.20;;;10.23;;
19414;SDS011;9843;48.882;12.592;2022-12-07T14:33:31;12.00;;;8.73;;
19414;SDS011;9843;48.882;12.592;2022-12-07T14:35:58;11.97;;;9.57;;
19414;SDS011;9843;48.882;12.592;2022-12-07T14:38:25;15.97;;;11.00;;
19414;SDS011;9843;48.882;12.592;2022-12-07T14:40:53;13.60;;;10.13;;
19414;SDS011;9843;48.882;12.592;2022-12-07T14:43:40;19.60;;;11.00;;
19414;SDS011;9843;48.882;12.592;2022-12-07T14:46:08;11.17;;;9.43;;
19414;SDS011;9843;48.882;12.592;2022-12-07T14:48:37;10.70;;;9.63;;
19414;SDS011;9843;48.882;12.592;2022-12-07T14:51:04;11.77;;;9.80;;
19414;SDS011;9843;48.882;12.592;2022-12-07T14:53:31;13.60;;;10.33;;
19414;SDS011;9843;48.882;12.592;2022-12-07T14:56:00;11.93;;;9.40;;
19414;SDS011;9843;48.882;12.592;2022-12-07T14:58:27;14.00;;;9.50;;
19414;SDS011;9843;48.882;12.592;2022-12-07T15:00:54;13.70;;;9.13;;
19414;SDS011;9843;48.882;12.592;2022-12-07T15:03:21;14.23;;;10.27;;
19414;SDS011;9843;48.882;12.592;2022-12-07T15:05:50;12.43;;;10.20;;